createdAt,value
2019-04-14T00:00:51.481Z,33.81
2019-04-14T00:03:26.100Z,33.64
2019-04-14T00:05:58.237Z,33.96
2019-04-14T00:08:28.373Z,34.29
2019-04-14T00:10:57.840Z,34.31
2019-04-14T00:13:27.085Z,34.48
2019-04-14T00:15:56.689Z,34.56
2019-04-14T00:18:27.206Z,34.94
2019-04-14T00:20:57.517Z,35.19
2019-04-14T00:23:28.219Z,34.87
2019-04-14T00:26:09.762Z,35.15
2019-04-14T00:28:39.034Z,35.63
2019-04-14T00:31:08.739Z,35.75
2019-04-14T00:33:38.842Z,35.53
2019-04-14T00:36:16.139Z,34.25
2019-04-14T00:38:47.795Z,33.93
2019-04-14T00:41:41.343Z,34.83
2019-04-14T00:44:03.659Z,34.30
2019-04-14T00:46:38.702Z,35.12
2019-04-14T00:49:09.197Z,36.00
2019-04-14T00:51:40.567Z,34.72
2019-04-14T00:54:10.872Z,35.04
2019-04-14T00:56:41.113Z,35.28
2019-04-14T00:59:11.412Z,34.52
2019-04-14T01:01:41.681Z,34.86
2019-04-14T01:04:12.179Z,35.82
2019-04-14T01:06:42.609Z,35.76
2019-04-14T01:09:13.600Z,34.70
2019-04-14T01:11:42.866Z,34.45
2019-04-14T01:14:12.639Z,33.80
2019-04-14T01:16:42.999Z,34.28
2019-04-14T01:19:13.364Z,33.85
2019-04-14T01:21:43.624Z,33.73
2019-04-14T01:24:14.168Z,34.38
2019-04-14T01:26:44.238Z,34.56
2019-04-14T01:29:14.403Z,35.71
2019-04-14T01:31:44.685Z,35.84
2019-04-14T01:34:15.191Z,35.71
2019-04-14T01:36:45.328Z,36.13
2019-04-14T01:39:15.466Z,36.80
2019-04-14T01:41:45.631Z,35.79
2019-04-14T01:44:15.626Z,36.30
2019-04-14T01:46:45.591Z,36.90
2019-04-14T01:49:15.753Z,35.03
2019-04-14T01:51:52.897Z,35.17
2019-04-14T01:54:43.000Z,34.32
2019-04-14T01:57:30.677Z,35.67
2019-04-14T02:00:01.657Z,34.32
2019-04-14T02:02:31.503Z,34.96
2019-04-14T02:05:01.820Z,35.13
2019-04-14T02:07:31.934Z,35.75
2019-04-14T02:10:01.983Z,34.56
2019-04-14T02:12:32.361Z,34.90
2019-04-14T02:15:02.874Z,34.39
2019-04-14T02:17:35.063Z,35.48
2019-04-14T02:20:05.629Z,36.22
2019-04-14T02:22:35.580Z,36.44
2019-04-14T02:25:05.684Z,37.09
2019-04-14T02:27:36.053Z,37.40
2019-04-14T02:30:10.341Z,36.59
2019-04-14T02:33:05.363Z,37.12
2019-04-14T02:35:42.589Z,37.71
2019-04-14T02:38:14.480Z,37.10
2019-04-14T02:41:13.699Z,37.28
2019-04-14T02:43:13.022Z,37.46
2019-04-14T02:45:43.187Z,38.52
2019-04-14T02:48:25.488Z,38.61
2019-04-14T02:50:38.540Z,38.64
2019-04-14T02:53:15.199Z,39.03
2019-04-14T02:55:42.816Z,38.00
2019-04-14T02:58:20.657Z,38.80
2019-04-14T03:08:23.573Z,38.92
2019-04-14T03:10:47.976Z,39.65
2019-04-14T03:13:21.282Z,39.88
2019-04-14T03:21:19.703Z,40.16
2019-04-14T03:26:44.987Z,40.99
2019-04-14T03:29:19.234Z,41.34
2019-04-14T03:32:04.620Z,41.31
2019-04-14T03:39:26.947Z,39.67
2019-04-14T03:41:58.234Z,40.54
2019-04-14T03:52:22.128Z,39.67
2019-04-14T03:54:20.600Z,40.35
2019-04-14T03:56:53.375Z,39.77
2019-04-14T03:59:24.034Z,39.67
2019-04-14T04:01:54.526Z,39.68
2019-04-14T04:04:25.023Z,38.59
2019-04-14T04:06:55.355Z,38.78
2019-04-14T04:09:26.302Z,39.33
2019-04-14T04:11:56.621Z,39.67
2019-04-14T04:14:27.084Z,40.08
2019-04-14T04:17:10.371Z,39.65
2019-04-14T04:19:44.754Z,38.83
2019-04-14T04:22:15.834Z,39.26
2019-04-14T04:24:47.569Z,39.49
2019-04-14T04:27:33.630Z,38.90
2019-04-14T04:30:08.094Z,38.29
2019-04-14T04:32:42.629Z,38.29
2019-04-14T04:35:13.514Z,37.80
2019-04-14T04:37:50.363Z,38.07
2019-04-14T04:40:22.225Z,36.73
2019-04-14T04:42:52.674Z,35.97
2019-04-14T04:45:22.093Z,35.88
2019-04-14T04:47:51.868Z,36.01
2019-04-14T04:50:21.434Z,34.97
2019-04-14T04:52:51.765Z,34.17
2019-04-14T04:55:22.010Z,33.67
2019-04-14T04:57:52.385Z,33.45
2019-04-14T05:00:22.246Z,33.07
2019-04-14T05:02:52.712Z,33.11
2019-04-14T05:05:58.941Z,33.59
2019-04-14T05:08:28.669Z,32.51
2019-04-14T05:11:18.698Z,31.70
2019-04-14T05:13:51.107Z,32.25
2019-04-14T05:16:19.897Z,33.34
2019-04-14T05:18:49.294Z,33.42
2019-04-14T05:21:19.210Z,32.92
2019-04-14T05:23:49.538Z,32.97
2019-04-14T05:26:19.905Z,32.67
2019-04-14T05:28:50.559Z,33.39
2019-04-14T05:31:20.744Z,33.70
2019-04-14T05:33:51.167Z,34.53
2019-04-14T05:36:21.446Z,33.04
2019-04-14T05:38:51.815Z,32.23
2019-04-14T05:41:22.198Z,31.78
2019-04-14T05:43:55.627Z,31.82
2019-04-14T05:46:23.185Z,32.32
2019-04-14T05:48:55.649Z,31.92
2019-04-14T05:51:26.451Z,31.73
2019-04-14T05:53:56.641Z,32.01
2019-04-14T05:56:26.063Z,31.29
2019-04-14T05:58:55.795Z,30.83
2019-04-14T06:01:25.226Z,29.60
2019-04-14T06:03:54.608Z,28.70
2019-04-14T06:06:24.062Z,27.32
2019-04-14T06:08:53.321Z,27.71
2019-04-14T06:11:22.575Z,27.75
2019-04-14T06:13:52.072Z,29.18
2019-04-14T06:16:21.432Z,29.65
2019-04-14T06:18:50.830Z,28.95
2019-04-14T06:21:20.279Z,27.23
2019-04-14T06:23:49.619Z,26.70
2019-04-14T06:26:19.005Z,26.84
2019-04-14T06:28:48.666Z,27.22
2019-04-14T06:31:36.236Z,26.38
2019-04-14T06:34:07.285Z,25.78
2019-04-14T06:36:46.701Z,26.22
2019-04-14T06:39:17.916Z,26.43
2019-04-14T06:41:47.241Z,26.57
2019-04-14T06:44:16.649Z,26.92
2019-04-14T06:46:46.090Z,25.26
2019-04-14T06:49:15.483Z,24.60
2019-04-14T06:51:44.795Z,23.39
2019-04-14T06:54:15.214Z,23.35
2019-04-14T06:56:44.439Z,24.15
2019-04-14T06:59:13.849Z,24.19
2019-04-14T07:01:43.306Z,23.55
2019-04-14T07:04:12.627Z,22.80
2019-04-14T07:06:42.026Z,21.39
2019-04-14T07:09:11.417Z,22.13
2019-04-14T07:11:40.745Z,23.80
2019-04-14T07:14:10.062Z,23.68
2019-04-14T07:16:39.621Z,24.08
2019-04-14T07:19:08.966Z,23.89
2019-04-14T07:21:38.226Z,24.12
2019-04-14T07:24:07.576Z,23.55
2019-04-14T07:26:36.990Z,24.05
2019-04-14T07:29:06.335Z,22.26
2019-04-14T07:31:55.704Z,21.53
2019-04-14T07:34:29.262Z,21.10
2019-04-14T07:37:00.175Z,20.18
2019-04-14T07:39:33.651Z,20.51
2019-04-14T07:42:04.698Z,20.63
2019-04-14T07:44:52.039Z,20.83
2019-04-14T07:47:28.794Z,21.23
2019-04-14T07:50:16.000Z,21.33
2019-04-14T07:52:52.136Z,21.04
2019-04-14T07:55:39.491Z,19.99
2019-04-14T07:58:10.881Z,19.33
2019-04-14T08:00:41.987Z,20.41
2019-04-14T08:03:18.995Z,21.85
2019-04-14T08:05:48.386Z,21.46
2019-04-14T08:08:17.799Z,21.35
2019-04-14T08:10:47.124Z,19.90
2019-04-14T08:13:16.523Z,20.22
2019-04-14T08:15:45.865Z,20.04
2019-04-14T08:18:15.188Z,20.26
2019-04-14T08:20:44.683Z,20.20
2019-04-14T08:23:13.949Z,19.77
2019-04-14T08:25:43.331Z,20.14
2019-04-14T08:28:12.725Z,19.55
2019-04-14T08:30:42.059Z,19.25
2019-04-14T08:33:11.449Z,19.48
2019-04-14T08:35:40.854Z,20.38
2019-04-14T08:38:10.184Z,20.22
2019-04-14T08:40:39.519Z,19.81
2019-04-14T08:43:22.511Z,20.35
2019-04-14T08:46:09.475Z,20.64
2019-04-14T08:48:49.444Z,20.54
2019-04-14T08:51:32.789Z,20.07
2019-04-14T08:54:16.094Z,21.77
2019-04-14T08:56:47.143Z,20.94
2019-04-14T08:59:21.299Z,20.94
2019-04-14T09:02:07.118Z,20.81
2019-04-14T09:04:37.989Z,20.01
2019-04-14T09:07:14.617Z,19.19
2019-04-14T09:09:48.472Z,18.95
2019-04-14T09:12:25.582Z,20.32
2019-04-14T09:14:57.387Z,21.02
2019-04-14T09:17:27.901Z,19.75
2019-04-14T09:19:57.195Z,19.39
2019-04-14T09:22:26.722Z,17.46
2019-04-14T09:24:56.131Z,18.16
2019-04-14T09:27:25.566Z,18.10
2019-04-14T09:29:55.115Z,18.04
2019-04-14T09:32:25.484Z,18.68
2019-04-14T09:34:54.838Z,17.90
2019-04-14T09:37:24.225Z,18.27
2019-04-14T09:39:53.562Z,17.27
2019-04-14T09:42:22.960Z,17.40
2019-04-14T09:44:52.333Z,16.85
2019-04-14T09:47:21.776Z,16.87
2019-04-14T09:49:51.769Z,16.54
2019-04-14T09:52:21.231Z,18.45
2019-04-14T09:54:50.556Z,19.50
2019-04-14T09:57:19.804Z,19.03
2019-04-14T09:59:49.282Z,19.85
2019-04-14T10:02:18.590Z,19.93
2019-04-14T10:04:47.986Z,19.65
2019-04-14T10:10:19.503Z,18.74
2019-04-14T10:12:49.135Z,18.90
2019-04-14T10:15:18.309Z,19.75
2019-04-14T10:17:47.481Z,20.42
2019-04-14T10:20:16.788Z,20.43
2019-04-14T10:22:45.970Z,18.98
2019-04-14T10:25:15.217Z,20.30
2019-04-14T10:27:44.457Z,20.80
2019-04-14T10:30:13.704Z,21.36
2019-04-14T10:32:42.895Z,20.54
2019-04-14T10:35:12.194Z,20.27
2019-04-14T10:37:41.389Z,20.43
2019-04-14T10:40:10.691Z,20.66
2019-04-14T10:42:39.983Z,20.50
2019-04-14T10:45:09.233Z,20.17
2019-04-14T10:47:38.655Z,20.11
2019-04-14T10:50:07.918Z,21.01
2019-04-14T10:52:37.184Z,21.26
2019-04-14T10:55:07.362Z,21.21
2019-04-14T10:57:36.559Z,20.57
2019-04-14T11:00:08.746Z,20.46
2019-04-14T11:02:37.920Z,19.69
2019-04-14T11:05:08.622Z,21.97
2019-04-14T11:07:37.935Z,22.04
2019-04-14T11:10:08.041Z,22.63
2019-04-14T11:12:37.355Z,23.08
2019-04-14T11:15:07.534Z,23.77
2019-04-14T11:17:36.782Z,22.99
2019-04-14T11:20:08.952Z,23.91
2019-04-14T11:22:38.550Z,24.27
2019-04-14T11:25:07.859Z,23.66
2019-04-14T11:27:37.041Z,22.62
2019-04-14T11:30:08.690Z,23.83
2019-04-14T11:32:55.540Z,24.07
2019-04-14T11:35:29.547Z,23.90
2019-04-14T11:38:00.423Z,23.53
2019-04-14T11:40:31.289Z,24.21
2019-04-14T11:43:00.491Z,23.92
2019-04-14T11:45:29.775Z,24.00
2019-04-14T11:47:59.132Z,23.75
2019-04-14T11:50:28.368Z,23.88
2019-04-14T11:52:57.600Z,21.56
2019-04-14T11:55:26.859Z,22.58
2019-04-14T11:57:56.070Z,23.19
2019-04-14T12:00:32.766Z,22.84
2019-04-14T12:03:15.659Z,23.18
2019-04-14T12:06:02.429Z,23.10
2019-04-14T12:08:33.287Z,23.78
2019-04-14T12:11:02.798Z,23.71
2019-04-14T12:13:32.037Z,23.50
2019-04-14T12:16:01.240Z,23.14
2019-04-14T12:18:30.441Z,22.75
2019-04-14T12:20:59.741Z,23.35
2019-04-14T12:23:29.028Z,22.51
2019-04-14T12:26:05.050Z,22.68
2019-04-14T12:28:29.235Z,22.03
2019-04-14T12:30:59.682Z,21.99
2019-04-14T12:33:29.000Z,22.26
2019-04-14T12:35:59.905Z,22.32
2019-04-14T12:38:29.201Z,21.86
2019-04-14T12:41:00.469Z,21.55
2019-04-14T12:43:31.293Z,20.66
2019-04-14T12:46:08.160Z,20.69
2019-04-14T12:48:39.064Z,21.14
2019-04-14T12:51:13.015Z,21.96
2019-04-14T12:53:42.259Z,22.31
2019-04-14T12:56:13.537Z,21.09
2019-04-14T12:58:56.744Z,21.25
2019-04-14T13:01:27.573Z,21.35
2019-04-14T13:03:56.910Z,21.02
2019-04-14T13:06:26.149Z,21.95
2019-04-14T13:08:55.334Z,21.70
2019-04-14T13:11:24.508Z,22.01
2019-04-14T13:13:53.738Z,22.60
2019-04-14T13:16:22.988Z,21.56
2019-04-14T13:18:52.237Z,21.70
2019-04-14T13:21:21.527Z,20.89
2019-04-14T13:23:50.794Z,20.54
2019-04-14T13:26:20.059Z,20.79
2019-04-14T13:28:49.762Z,20.74
2019-04-14T13:31:19.012Z,21.16
2019-04-14T13:33:48.221Z,20.15
2019-04-14T13:36:17.549Z,18.75
2019-04-14T13:38:46.737Z,20.83
2019-04-14T13:41:16.048Z,20.91
2019-04-14T13:43:45.298Z,20.96
2019-04-14T13:46:14.563Z,20.05
2019-04-14T13:48:43.781Z,20.71
2019-04-14T13:51:13.160Z,20.30
2019-04-14T13:53:42.416Z,20.73
2019-04-14T13:56:11.808Z,21.29
2019-04-14T13:58:41.295Z,22.38
2019-04-14T14:01:10.659Z,22.13
2019-04-14T14:03:39.922Z,21.71
2019-04-14T14:06:09.179Z,20.99
2019-04-14T14:08:38.558Z,21.21
2019-04-14T14:11:12.077Z,21.53
2019-04-14T14:13:48.637Z,21.30
2019-04-14T14:16:25.014Z,21.45
2019-04-14T14:18:55.837Z,21.34
2019-04-14T14:21:35.486Z,21.71
2019-04-14T14:24:06.388Z,21.56
2019-04-14T14:26:46.178Z,20.73
2019-04-14T14:29:15.401Z,21.97
2019-04-14T14:31:44.667Z,20.36
2019-04-14T14:34:13.850Z,20.04
2019-04-14T14:36:43.226Z,19.74
2019-04-14T14:39:14.002Z,19.82
2019-04-14T14:41:43.278Z,19.83
2019-04-14T14:44:12.519Z,19.98
2019-04-14T14:46:52.150Z,20.47
2019-04-14T14:49:25.647Z,20.66
2019-04-14T14:51:56.528Z,20.84
2019-04-14T14:54:25.783Z,21.03
2019-04-14T14:56:54.967Z,20.97
2019-04-14T14:59:24.235Z,21.16
2019-04-14T15:01:53.489Z,19.96
2019-04-14T15:04:22.805Z,18.97
2019-04-14T15:06:52.092Z,19.47
2019-04-14T15:09:21.409Z,19.40
2019-04-14T15:11:50.608Z,20.31
2019-04-14T15:14:19.897Z,19.83
2019-04-14T15:16:49.163Z,20.61
2019-04-14T15:19:18.347Z,20.15
2019-04-14T15:21:47.558Z,19.30
2019-04-14T15:24:16.808Z,19.81
2019-04-14T15:26:46.045Z,20.74
2019-04-14T15:29:15.282Z,21.82
2019-04-14T15:31:44.518Z,21.28
2019-04-14T15:34:13.727Z,21.72
2019-04-14T15:36:42.981Z,20.86
2019-04-14T15:39:12.331Z,21.00
2019-04-14T15:41:41.567Z,22.04
2019-04-14T15:44:10.745Z,22.01
2019-04-14T15:46:39.985Z,21.66
2019-04-14T15:49:09.277Z,21.70
2019-04-14T15:51:38.471Z,20.60
2019-04-14T15:54:07.782Z,19.74
2019-04-14T15:56:38.606Z,20.04
2019-04-14T15:59:15.289Z,21.16
2019-04-14T16:01:51.752Z,21.17
2019-04-14T16:04:25.653Z,21.45
2019-04-14T16:07:08.252Z,21.61
2019-04-14T16:09:50.374Z,21.55
2019-04-14T16:12:23.980Z,20.64
2019-04-14T16:14:54.851Z,20.96
2019-04-14T16:17:34.663Z,21.33
2019-04-14T16:20:06.686Z,20.90
2019-04-14T16:22:36.115Z,20.98
2019-04-14T16:25:07.242Z,21.38
2019-04-14T16:27:38.171Z,21.48
2019-04-14T16:30:24.039Z,19.99
2019-04-14T16:32:57.804Z,19.84
2019-04-14T16:35:28.615Z,20.54
2019-04-14T16:37:57.795Z,21.07
2019-04-14T16:40:26.994Z,21.25
2019-04-14T16:42:56.584Z,21.26
2019-04-14T16:45:25.836Z,22.33
2019-04-14T16:47:55.135Z,22.37
2019-04-14T16:50:24.774Z,22.79
2019-04-14T16:53:12.025Z,22.83
2019-04-14T16:55:45.588Z,22.96
2019-04-14T16:58:19.484Z,21.72
2019-04-14T17:00:50.367Z,20.93
2019-04-14T17:03:19.548Z,20.35
2019-04-14T17:05:48.723Z,20.27
2019-04-14T17:08:17.950Z,20.45
2019-04-14T17:10:47.192Z,20.46
2019-04-14T17:13:16.534Z,20.43
2019-04-14T17:15:56.336Z,20.39
2019-04-14T17:18:42.645Z,20.49
2019-04-14T17:21:18.991Z,21.04
2019-04-14T17:23:49.812Z,20.91
2019-04-14T17:26:23.662Z,20.76
2019-04-14T17:29:09.082Z,20.35
2019-04-14T17:31:42.935Z,21.77
2019-04-14T17:34:19.734Z,21.88
2019-04-14T17:37:06.780Z,21.10
2019-04-14T17:39:40.313Z,20.60
2019-04-14T17:42:13.962Z,20.72
2019-04-14T17:44:44.790Z,20.60
2019-04-14T17:47:31.794Z,21.21
2019-04-14T17:50:02.625Z,22.27
2019-04-14T17:52:36.382Z,21.60
2019-04-14T17:55:17.698Z,21.46
2019-04-14T17:57:51.364Z,21.83
2019-04-14T18:00:24.919Z,21.39
2019-04-14T18:03:10.920Z,22.35
2019-04-14T18:05:41.750Z,21.66
2019-04-14T18:08:15.482Z,22.13
2019-04-14T18:10:46.310Z,22.10
2019-04-14T18:13:37.348Z,21.99
2019-04-14T18:16:10.949Z,22.40
2019-04-14T18:18:56.794Z,22.84
2019-04-14T18:21:26.121Z,22.73
2019-04-14T18:23:55.301Z,22.43
2019-04-14T18:26:24.631Z,22.99
2019-04-14T18:28:57.938Z,22.82
2019-04-14T18:31:31.246Z,24.17
2019-04-14T18:34:18.592Z,23.47
2019-04-14T18:36:52.248Z,23.10
2019-04-14T18:39:39.095Z,23.35
2019-04-14T18:42:15.692Z,24.13
2019-04-14T18:44:55.414Z,24.37
2019-04-14T18:47:29.005Z,24.36
2019-04-14T18:50:05.611Z,24.43
2019-04-14T18:52:54.487Z,24.60
2019-04-14T18:55:41.487Z,25.02
2019-04-14T18:58:12.357Z,25.77
2019-04-14T19:00:55.080Z,26.78
2019-04-14T19:03:24.504Z,26.54
2019-04-14T19:05:53.810Z,27.13
2019-04-14T19:08:23.001Z,27.46
2019-04-14T19:10:53.862Z,27.21
2019-04-14T19:13:27.188Z,26.38
2019-04-14T19:16:00.727Z,26.62
2019-04-14T19:18:31.604Z,26.77
2019-04-14T19:21:02.433Z,26.62
2019-04-14T19:23:31.633Z,25.54
2019-04-14T19:26:00.877Z,24.57
2019-04-14T19:28:30.171Z,23.89
2019-04-14T19:30:59.474Z,23.39
2019-04-14T19:33:28.682Z,23.45
2019-04-14T19:35:57.980Z,24.47
2019-04-14T19:38:27.192Z,24.81
2019-04-14T19:40:56.386Z,24.99
2019-04-14T19:43:25.668Z,25.45
2019-04-14T19:45:56.442Z,25.70
2019-04-14T19:48:26.390Z,25.24
2019-04-14T19:50:55.577Z,24.43
2019-04-14T19:53:24.774Z,24.30
2019-04-14T19:55:54.022Z,24.14
2019-04-14T19:58:23.273Z,23.57
2019-04-14T20:00:52.520Z,23.37
2019-04-14T20:03:21.840Z,23.65
2019-04-14T20:05:51.096Z,23.68
2019-04-14T20:08:20.301Z,24.03
2019-04-14T20:10:50.007Z,24.27
2019-04-14T20:13:22.262Z,23.74
2019-04-14T20:15:55.605Z,23.53
2019-04-14T20:18:26.429Z,23.71
2019-04-14T20:20:57.254Z,23.60
2019-04-14T20:23:28.137Z,23.62
2019-04-14T20:26:10.857Z,23.62
2019-04-14T20:28:44.473Z,23.65
2019-04-14T20:31:15.299Z,24.30
2019-04-14T20:33:44.498Z,24.08
2019-04-14T20:36:14.107Z,24.00
2019-04-14T20:38:43.307Z,23.87
2019-04-14T20:41:12.477Z,23.79
2019-04-14T20:43:41.696Z,23.74
2019-04-14T20:46:10.874Z,23.73
2019-04-14T20:48:40.202Z,23.77
2019-04-14T20:51:09.573Z,23.89
2019-04-14T20:53:38.748Z,24.50
2019-04-14T20:56:08.040Z,24.15
2019-04-14T20:58:37.226Z,24.12
2019-04-14T21:01:07.890Z,24.11
2019-04-14T21:03:47.731Z,24.25
2019-04-14T21:06:34.903Z,24.13
2019-04-14T21:09:15.519Z,24.24
2019-04-14T21:11:46.472Z,24.30
2019-04-14T21:14:20.017Z,24.24
2019-04-14T21:17:05.959Z,24.28
2019-04-14T21:19:36.793Z,24.26
2019-04-14T21:22:10.128Z,24.25
2019-04-14T21:24:41.122Z,24.70
2019-04-14T21:27:17.712Z,24.67
2019-04-14T21:30:03.726Z,24.72
2019-04-14T21:32:37.045Z,25.05
2019-04-14T21:35:07.884Z,24.95
2019-04-14T21:37:48.695Z,25.19
2019-04-14T21:40:37.340Z,25.34
2019-04-14T21:43:06.582Z,25.18
2019-04-14T21:45:35.908Z,25.28
2019-04-14T21:48:05.176Z,25.35
2019-04-14T21:50:34.464Z,25.37
2019-04-14T21:53:03.761Z,25.30
2019-04-14T21:55:33.307Z,25.61
2019-04-14T21:58:06.860Z,25.37
2019-04-14T22:01:12.070Z,25.47
2019-04-14T22:03:55.123Z,25.56
2019-04-14T22:06:28.442Z,25.79
2019-04-14T22:08:57.705Z,25.85
2019-04-14T22:11:28.551Z,25.84
2019-04-14T22:13:57.776Z,25.87
2019-04-14T22:16:27.927Z,25.87
2019-04-14T22:18:57.193Z,25.58
2019-04-14T22:21:26.439Z,25.64
2019-04-14T22:24:01.654Z,25.75
2019-04-14T22:26:26.682Z,25.61
2019-04-14T22:28:55.941Z,25.75
2019-04-14T22:31:25.223Z,25.98
2019-04-14T22:33:54.410Z,26.04
2019-04-14T22:36:23.618Z,26.21
2019-04-14T22:38:52.793Z,26.20
2019-04-14T22:41:22.095Z,26.14
2019-04-14T22:43:51.345Z,26.09
2019-04-14T22:46:20.765Z,26.47
2019-04-14T22:48:49.998Z,26.53
2019-04-14T22:51:19.166Z,26.35
2019-04-14T22:53:48.417Z,26.37
2019-04-14T22:56:17.657Z,26.43
2019-04-14T22:58:46.900Z,26.67
2019-04-14T23:01:23.495Z,26.51
2019-04-14T23:04:10.699Z,26.48
2019-04-14T23:06:41.833Z,26.88
2019-04-14T23:09:21.271Z,26.88
2019-04-14T23:11:52.958Z,27.03
2019-04-14T23:14:29.948Z,26.94
2019-04-14T23:17:15.855Z,27.00
2019-04-14T23:19:49.217Z,26.82
2019-04-14T23:22:25.768Z,27.27
2019-04-14T23:24:55.051Z,27.17
2019-04-14T23:27:24.290Z,27.48
2019-04-14T23:29:53.503Z,28.23
2019-04-14T23:32:22.750Z,28.93
2019-04-14T23:34:52.005Z,29.54
2019-04-14T23:37:21.223Z,29.32
2019-04-14T23:39:50.397Z,29.35
2019-04-14T23:42:19.583Z,28.82
2019-04-14T23:44:48.880Z,28.79
2019-04-14T23:47:18.129Z,28.85
2019-04-14T23:49:47.300Z,29.41
2019-04-14T23:52:16.613Z,28.90
2019-04-14T23:54:45.913Z,28.67
2019-04-14T23:57:15.091Z,28.92
2019-04-14T23:59:44.291Z,28.62
